sensor_id;sensor_type;location;lat;lon;timestamp;temperature;humidity
47616;DHT22;69146;52.266;7.000;2023-08-30T00:01:16;15.60;99.90
47616;DHT22;69146;52.266;7.000;2023-08-30T00:04:02;15.50;99.90
47616;DHT22;69146;52.266;7.000;2023-08-30T00:06:47;15.50;99.90
47616;DHT22;69146;52.266;7.000;2023-08-30T00:09:31;15.40;99.90
47616;DHT22;69146;52.266;7.000;2023-08-30T00:12:16;15.30;99.90
47616;DHT22;69146;52.266;7.000;2023-08-30T00:15:00;15.30;99.90
47616;DHT22;69146;52.266;7.000;2023-08-30T00:17:45;15.20;99.90
47616;DHT22;69146;52.266;7.000;2023-08-30T00:20:32;15.10;99.90
47616;DHT22;69146;52.266;7.000;2023-08-30T00:23:16;15.00;99.90
47616;DHT22;69146;52.266;7.000;2023-08-30T00:26:01;14.90;99.90
47616;DHT22;69146;52.266;7.000;2023-08-30T00:28:46;14.90;99.90
47616;DHT22;69146;52.266;7.000;2023-08-30T00:31:30;14.80;99.90
47616;DHT22;69146;52.266;7.000;2023-08-30T00:34:14;14.70;99.90
47616;DHT22;69146;52.266;7.000;2023-08-30T00:37:00;14.70;99.90
47616;DHT22;69146;52.266;7.000;2023-08-30T00:39:45;14.70;99.90
47616;DHT22;69146;52.266;7.000;2023-08-30T00:42:30;14.70;99.90
47616;DHT22;69146;52.266;7.000;2023-08-30T00:45:14;14.60;99.90
47616;DHT22;69146;52.266;7.000;2023-08-30T00:47:59;14.60;99.90
47616;DHT22;69146;52.266;7.000;2023-08-30T00:50:43;14.60;99.90
47616;DHT22;69146;52.266;7.000;2023-08-30T00:53:31;14.50;99.90
47616;DHT22;69146;52.266;7.000;2023-08-30T00:56:16;14.50;99.90
47616;DHT22;69146;52.266;7.000;2023-08-30T00:59:00;14.40;99.90
47616;DHT22;69146;52.266;7.000;2023-08-30T01:01:45;14.40;99.90
47616;DHT22;69146;52.266;7.000;2023-08-30T01:04:29;14.40;99.90
47616;DHT22;69146;52.266;7.000;2023-08-30T01:07:14;14.30;99.90
47616;DHT22;69146;52.266;7.000;2023-08-30T01:10:00;14.30;99.90
47616;DHT22;69146;52.266;7.000;2023-08-30T01:12:45;14.30;99.90
47616;DHT22;69146;52.266;7.000;2023-08-30T01:15:31;14.20;99.90
47616;DHT22;69146;52.266;7.000;2023-08-30T01:18:17;14.20;99.90
47616;DHT22;69146;52.266;7.000;2023-08-30T01:21:02;14.10;99.90
47616;DHT22;69146;52.266;7.000;2023-08-30T01:23:51;14.10;99.90
47616;DHT22;69146;52.266;7.000;2023-08-30T01:26:44;14.10;99.90
47616;DHT22;69146;52.266;7.000;2023-08-30T01:29:30;14.10;99.90
47616;DHT22;69146;52.266;7.000;2023-08-30T01:32:15;14.00;99.90
47616;DHT22;69146;52.266;7.000;2023-08-30T01:35:00;14.00;99.90
47616;DHT22;69146;52.266;7.000;2023-08-30T01:37:44;14.00;99.90
47616;DHT22;69146;52.266;7.000;2023-08-30T01:40:30;13.90;99.90
47616;DHT22;69146;52.266;7.000;2023-08-30T01:43:16;13.80;99.90
47616;DHT22;69146;52.266;7.000;2023-08-30T01:46:02;13.80;99.90
47616;DHT22;69146;52.266;7.000;2023-08-30T01:48:48;13.70;99.90
47616;DHT22;69146;52.266;7.000;2023-08-30T01:51:33;13.70;99.90
47616;DHT22;69146;52.266;7.000;2023-08-30T01:54:18;13.70;99.90
47616;DHT22;69146;52.266;7.000;2023-08-30T01:57:02;13.70;99.90
47616;DHT22;69146;52.266;7.000;2023-08-30T01:59:47;13.70;99.90
47616;DHT22;69146;52.266;7.000;2023-08-30T02:02:33;13.70;99.90
47616;DHT22;69146;52.266;7.000;2023-08-30T02:05:18;13.70;99.90
47616;DHT22;69146;52.266;7.000;2023-08-30T02:08:03;13.60;99.90
47616;DHT22;69146;52.266;7.000;2023-08-30T02:10:51;13.60;99.90
47616;DHT22;69146;52.266;7.000;2023-08-30T02:13:37;13.60;99.90
47616;DHT22;69146;52.266;7.000;2023-08-30T02:16:22;13.60;99.90
47616;DHT22;69146;52.266;7.000;2023-08-30T02:19:09;13.70;99.90
47616;DHT22;69146;52.266;7.000;2023-08-30T02:21:54;13.70;99.90
47616;DHT22;69146;52.266;7.000;2023-08-30T02:24:38;13.80;99.90
47616;DHT22;69146;52.266;7.000;2023-08-30T02:27:23;13.80;99.90
47616;DHT22;69146;52.266;7.000;2023-08-30T02:30:07;13.80;99.90
47616;DHT22;69146;52.266;7.000;2023-08-30T02:32:51;13.90;99.90
47616;DHT22;69146;52.266;7.000;2023-08-30T02:35:37;13.90;99.90
47616;DHT22;69146;52.266;7.000;2023-08-30T02:38:22;13.90;99.90
47616;DHT22;69146;52.266;7.000;2023-08-30T02:41:06;13.80;99.90
47616;DHT22;69146;52.266;7.000;2023-08-30T02:43:51;13.80;99.90
47616;DHT22;69146;52.266;7.000;2023-08-30T02:46:35;13.70;99.90
47616;DHT22;69146;52.266;7.000;2023-08-30T02:49:21;13.70;99.90
47616;DHT22;69146;52.266;7.000;2023-08-30T02:52:07;13.60;99.90
47616;DHT22;69146;52.266;7.000;2023-08-30T02:54:52;13.50;99.90
47616;DHT22;69146;52.266;7.000;2023-08-30T02:57:36;13.40;99.90
47616;DHT22;69146;52.266;7.000;2023-08-30T03:00:20;13.40;99.90
47616;DHT22;69146;52.266;7.000;2023-08-30T03:03:05;13.40;99.90
47616;DHT22;69146;52.266;7.000;2023-08-30T03:05:50;13.30;99.90
47616;DHT22;69146;52.266;7.000;2023-08-30T03:08:36;13.30;99.90
47616;DHT22;69146;52.266;7.000;2023-08-30T03:11:20;13.20;99.90
47616;DHT22;69146;52.266;7.000;2023-08-30T03:14:05;13.20;99.90
47616;DHT22;69146;52.266;7.000;2023-08-30T03:16:49;13.20;99.90
47616;DHT22;69146;52.266;7.000;2023-08-30T03:19:34;13.20;99.90
47616;DHT22;69146;52.266;7.000;2023-08-30T03:22:18;13.20;99.90
47616;DHT22;69146;52.266;7.000;2023-08-30T03:25:05;13.10;99.90
47616;DHT22;69146;52.266;7.000;2023-08-30T03:27:49;13.10;99.90
47616;DHT22;69146;52.266;7.000;2023-08-30T03:30:34;13.10;99.90
47616;DHT22;69146;52.266;7.000;2023-08-30T03:33:18;13.10;99.90
47616;DHT22;69146;52.266;7.000;2023-08-30T03:36:03;13.10;99.90
47616;DHT22;69146;52.266;7.000;2023-08-30T03:38:48;13.10;99.90
47616;DHT22;69146;52.266;7.000;2023-08-30T03:41:34;13.10;99.90
47616;DHT22;69146;52.266;7.000;2023-08-30T03:44:18;13.00;99.90
47616;DHT22;69146;52.266;7.000;2023-08-30T03:47:03;12.90;99.90
47616;DHT22;69146;52.266;7.000;2023-08-30T03:49:47;12.90;99.90
47616;DHT22;69146;52.266;7.000;2023-08-30T03:52:32;12.80;99.90
47616;DHT22;69146;52.266;7.000;2023-08-30T03:55:16;12.90;99.90
47616;DHT22;69146;52.266;7.000;2023-08-30T03:58:02;12.90;99.90
47616;DHT22;69146;52.266;7.000;2023-08-30T04:00:47;12.80;99.90
47616;DHT22;69146;52.266;7.000;2023-08-30T04:03:32;12.80;99.90
47616;DHT22;69146;52.266;7.000;2023-08-30T04:06:17;12.70;99.90
47616;DHT22;69146;52.266;7.000;2023-08-30T04:09:02;12.70;99.90
47616;DHT22;69146;52.266;7.000;2023-08-30T04:11:46;12.70;99.90
47616;DHT22;69146;52.266;7.000;2023-08-30T04:14:35;12.60;99.90
47616;DHT22;69146;52.266;7.000;2023-08-30T04:17:19;12.60;99.90
47616;DHT22;69146;52.266;7.000;2023-08-30T04:20:04;12.60;99.90
47616;DHT22;69146;52.266;7.000;2023-08-30T04:22:49;12.60;99.90
47616;DHT22;69146;52.266;7.000;2023-08-30T04:25:34;12.60;99.90
47616;DHT22;69146;52.266;7.000;2023-08-30T04:28:19;12.60;99.90
47616;DHT22;69146;52.266;7.000;2023-08-30T04:31:04;12.60;99.90
47616;DHT22;69146;52.266;7.000;2023-08-30T04:33:49;12.60;99.90
47616;DHT22;69146;52.266;7.000;2023-08-30T04:36:33;12.60;99.90
47616;DHT22;69146;52.266;7.000;2023-08-30T04:39:18;12.60;99.90
47616;DHT22;69146;52.266;7.000;2023-08-30T04:42:02;12.50;99.90
47616;DHT22;69146;52.266;7.000;2023-08-30T04:44:47;12.40;99.90
47616;DHT22;69146;52.266;7.000;2023-08-30T04:47:33;12.40;99.90
47616;DHT22;69146;52.266;7.000;2023-08-30T04:50:18;12.40;99.90
47616;DHT22;69146;52.266;7.000;2023-08-30T04:53:02;12.40;99.90
47616;DHT22;69146;52.266;7.000;2023-08-30T04:55:46;12.30;99.90
47616;DHT22;69146;52.266;7.000;2023-08-30T04:58:31;12.30;99.90
47616;DHT22;69146;52.266;7.000;2023-08-30T05:01:15;12.20;99.90
47616;DHT22;69146;52.266;7.000;2023-08-30T05:04:01;12.20;99.90
47616;DHT22;69146;52.266;7.000;2023-08-30T05:06:46;12.20;99.90
47616;DHT22;69146;52.266;7.000;2023-08-30T05:09:30;12.20;99.90
47616;DHT22;69146;52.266;7.000;2023-08-30T05:12:16;12.20;99.90
47616;DHT22;69146;52.266;7.000;2023-08-30T05:15:01;12.20;99.90
47616;DHT22;69146;52.266;7.000;2023-08-30T05:17:45;12.20;99.90
47616;DHT22;69146;52.266;7.000;2023-08-30T05:20:32;12.30;99.90
47616;DHT22;69146;52.266;7.000;2023-08-30T05:23:16;12.30;99.90
47616;DHT22;69146;52.266;7.000;2023-08-30T05:26:00;12.30;99.90
47616;DHT22;69146;52.266;7.000;2023-08-30T05:28:45;12.40;99.90
47616;DHT22;69146;52.266;7.000;2023-08-30T05:31:29;12.40;99.90
47616;DHT22;69146;52.266;7.000;2023-08-30T05:34:14;12.40;99.90
47616;DHT22;69146;52.266;7.000;2023-08-30T05:36:59;12.40;99.90
47616;DHT22;69146;52.266;7.000;2023-08-30T05:39:44;12.40;99.90
47616;DHT22;69146;52.266;7.000;2023-08-30T05:42:28;12.40;99.90
47616;DHT22;69146;52.266;7.000;2023-08-30T05:45:13;12.40;99.90
47616;DHT22;69146;52.266;7.000;2023-08-30T05:47:57;12.50;99.90
47616;DHT22;69146;52.266;7.000;2023-08-30T05:50:42;12.50;99.90
47616;DHT22;69146;52.266;7.000;2023-08-30T05:53:28;12.50;99.90
47616;DHT22;69146;52.266;7.000;2023-08-30T05:56:12;12.50;99.90
47616;DHT22;69146;52.266;7.000;2023-08-30T05:58:56;12.60;99.90
47616;DHT22;69146;52.266;7.000;2023-08-30T06:01:40;12.70;99.90
47616;DHT22;69146;52.266;7.000;2023-08-30T06:04:25;12.80;99.90
47616;DHT22;69146;52.266;7.000;2023-08-30T06:07:10;12.80;99.90
47616;DHT22;69146;52.266;7.000;2023-08-30T06:09:56;12.80;99.90
47616;DHT22;69146;52.266;7.000;2023-08-30T06:12:40;12.90;99.90
47616;DHT22;69146;52.266;7.000;2023-08-30T06:15:25;13.00;99.90
47616;DHT22;69146;52.266;7.000;2023-08-30T06:18:10;13.10;99.90
47616;DHT22;69146;52.266;7.000;2023-08-30T06:20:54;13.20;99.90
47616;DHT22;69146;52.266;7.000;2023-08-30T06:23:39;13.30;99.90
47616;DHT22;69146;52.266;7.000;2023-08-30T06:26:25;13.40;99.90
47616;DHT22;69146;52.266;7.000;2023-08-30T06:29:09;13.50;99.90
47616;DHT22;69146;52.266;7.000;2023-08-30T06:31:54;13.70;99.90
47616;DHT22;69146;52.266;7.000;2023-08-30T06:34:38;13.80;99.90
47616;DHT22;69146;52.266;7.000;2023-08-30T06:37:23;13.90;99.90
47616;DHT22;69146;52.266;7.000;2023-08-30T06:40:08;14.00;99.90
47616;DHT22;69146;52.266;7.000;2023-08-30T06:42:54;14.10;99.90
47616;DHT22;69146;52.266;7.000;2023-08-30T06:45:39;14.30;99.90
47616;DHT22;69146;52.266;7.000;2023-08-30T06:48:23;14.40;99.90
47616;DHT22;69146;52.266;7.000;2023-08-30T06:51:08;14.40;99.90
47616;DHT22;69146;52.266;7.000;2023-08-30T06:53:53;14.60;99.90
47616;DHT22;69146;52.266;7.000;2023-08-30T06:56:39;14.70;99.90
47616;DHT22;69146;52.266;7.000;2023-08-30T06:59:25;14.90;99.90
47616;DHT22;69146;52.266;7.000;2023-08-30T07:02:10;15.00;99.90
47616;DHT22;69146;52.266;7.000;2023-08-30T07:04:54;15.10;99.90
47616;DHT22;69146;52.266;7.000;2023-08-30T07:07:39;15.20;99.90
47616;DHT22;69146;52.266;7.000;2023-08-30T07:10:23;15.30;99.90
47616;DHT22;69146;52.266;7.000;2023-08-30T07:13:08;15.40;99.90
47616;DHT22;69146;52.266;7.000;2023-08-30T07:15:57;15.70;99.90
47616;DHT22;69146;52.266;7.000;2023-08-30T07:18:42;16.00;99.90
47616;DHT22;69146;52.266;7.000;2023-08-30T07:21:26;16.20;99.90
47616;DHT22;69146;52.266;7.000;2023-08-30T07:24:11;16.10;99.90
47616;DHT22;69146;52.266;7.000;2023-08-30T07:26:55;16.20;99.90
47616;DHT22;69146;52.266;7.000;2023-08-30T07:29:40;16.30;99.90
47616;DHT22;69146;52.266;7.000;2023-08-30T07:32:26;16.30;99.90
47616;DHT22;69146;52.266;7.000;2023-08-30T07:35:11;16.40;99.90
47616;DHT22;69146;52.266;7.000;2023-08-30T07:37:56;16.50;99.90
47616;DHT22;69146;52.266;7.000;2023-08-30T07:40:41;16.60;99.90
47616;DHT22;69146;52.266;7.000;2023-08-30T07:43:25;16.70;99.90
47616;DHT22;69146;52.266;7.000;2023-08-30T07:46:10;16.80;99.90
47616;DHT22;69146;52.266;7.000;2023-08-30T07:48:56;17.00;99.90
47616;DHT22;69146;52.266;7.000;2023-08-30T07:51:40;17.10;99.90
47616;DHT22;69146;52.266;7.000;2023-08-30T07:54:24;17.10;99.90
47616;DHT22;69146;52.266;7.000;2023-08-30T07:57:09;17.20;99.90
47616;DHT22;69146;52.266;7.000;2023-08-30T07:59:53;17.20;99.90
47616;DHT22;69146;52.266;7.000;2023-08-30T08:02:37;17.30;99.90
47616;DHT22;69146;52.266;7.000;2023-08-30T08:05:23;17.30;99.90
47616;DHT22;69146;52.266;7.000;2023-08-30T08:08:08;17.30;99.90
47616;DHT22;69146;52.266;7.000;2023-08-30T08:10:52;17.30;99.90
47616;DHT22;69146;52.266;7.000;2023-08-30T08:13:37;17.20;99.90
47616;DHT22;69146;52.266;7.000;2023-08-30T08:16:23;17.10;99.90
47616;DHT22;69146;52.266;7.000;2023-08-30T08:19:07;17.00;99.90
47616;DHT22;69146;52.266;7.000;2023-08-30T08:21:53;16.90;99.90
47616;DHT22;69146;52.266;7.000;2023-08-30T08:24:39;16.80;99.90
47616;DHT22;69146;52.266;7.000;2023-08-30T08:27:24;16.70;99.90
47616;DHT22;69146;52.266;7.000;2023-08-30T08:30:09;16.60;99.90
47616;DHT22;69146;52.266;7.000;2023-08-30T08:32:53;16.60;99.90
47616;DHT22;69146;52.266;7.000;2023-08-30T08:35:39;16.50;99.90
47616;DHT22;69146;52.266;7.000;2023-08-30T08:38:25;16.50;99.90
47616;DHT22;69146;52.266;7.000;2023-08-30T08:41:12;16.50;99.90
47616;DHT22;69146;52.266;7.000;2023-08-30T08:43:58;16.50;99.90
47616;DHT22;69146;52.266;7.000;2023-08-30T08:46:44;16.50;99.90
47616;DHT22;69146;52.266;7.000;2023-08-30T08:49:28;16.50;99.90
47616;DHT22;69146;52.266;7.000;2023-08-30T08:52:15;16.50;99.90
47616;DHT22;69146;52.266;7.000;2023-08-30T08:55:01;16.50;99.90
47616;DHT22;69146;52.266;7.000;2023-08-30T08:57:46;16.50;99.90
47616;DHT22;69146;52.266;7.000;2023-08-30T09:00:32;16.50;99.90
47616;DHT22;69146;52.266;7.000;2023-08-30T09:03:17;16.60;99.90
47616;DHT22;69146;52.266;7.000;2023-08-30T09:06:02;16.70;99.90
47616;DHT22;69146;52.266;7.000;2023-08-30T09:08:47;16.70;99.90
47616;DHT22;69146;52.266;7.000;2023-08-30T09:11:32;16.60;99.90
47616;DHT22;69146;52.266;7.000;2023-08-30T09:14:17;16.50;99.90
47616;DHT22;69146;52.266;7.000;2023-08-30T09:17:02;16.40;99.90
47616;DHT22;69146;52.266;7.000;2023-08-30T09:19:47;16.30;99.90
47616;DHT22;69146;52.266;7.000;2023-08-30T09:22:35;16.20;99.90
47616;DHT22;69146;52.266;7.000;2023-08-30T09:25:23;16.20;99.90
47616;DHT22;69146;52.266;7.000;2023-08-30T09:28:10;16.20;99.90
47616;DHT22;69146;52.266;7.000;2023-08-30T09:30:56;16.10;99.90
47616;DHT22;69146;52.266;7.000;2023-08-30T09:33:41;16.00;99.90
47616;DHT22;69146;52.266;7.000;2023-08-30T09:36:26;16.00;99.90
47616;DHT22;69146;52.266;7.000;2023-08-30T09:39:11;15.90;99.90
47616;DHT22;69146;52.266;7.000;2023-08-30T09:41:56;15.90;99.90
47616;DHT22;69146;52.266;7.000;2023-08-30T09:44:42;15.80;99.90
47616;DHT22;69146;52.266;7.000;2023-08-30T09:47:27;15.70;99.90
47616;DHT22;69146;52.266;7.000;2023-08-30T09:50:11;15.70;99.90
47616;DHT22;69146;52.266;7.000;2023-08-30T09:52:59;15.60;99.90
47616;DHT22;69146;52.266;7.000;2023-08-30T09:55:45;15.50;99.90
47616;DHT22;69146;52.266;7.000;2023-08-30T09:58:29;15.50;99.90
47616;DHT22;69146;52.266;7.000;2023-08-30T10:01:16;15.50;99.90
47616;DHT22;69146;52.266;7.000;2023-08-30T10:04:01;15.50;99.90
47616;DHT22;69146;52.266;7.000;2023-08-30T10:06:47;15.50;99.90
47616;DHT22;69146;52.266;7.000;2023-08-30T10:09:32;15.70;99.90
47616;DHT22;69146;52.266;7.000;2023-08-30T10:12:17;15.80;99.90
47616;DHT22;69146;52.266;7.000;2023-08-30T10:15:04;15.90;99.90
47616;DHT22;69146;52.266;7.000;2023-08-30T10:17:51;16.00;99.90
47616;DHT22;69146;52.266;7.000;2023-08-30T10:20:37;16.10;99.90
47616;DHT22;69146;52.266;7.000;2023-08-30T10:23:22;16.10;99.90
47616;DHT22;69146;52.266;7.000;2023-08-30T10:26:07;16.00;99.90
47616;DHT22;69146;52.266;7.000;2023-08-30T10:28:53;16.00;99.90
47616;DHT22;69146;52.266;7.000;2023-08-30T10:31:39;15.90;99.90
47616;DHT22;69146;52.266;7.000;2023-08-30T10:34:31;15.70;99.90
47616;DHT22;69146;52.266;7.000;2023-08-30T10:37:15;15.70;99.90
47616;DHT22;69146;52.266;7.000;2023-08-30T10:40:00;15.60;99.90
47616;DHT22;69146;52.266;7.000;2023-08-30T10:42:58;15.60;99.90
47616;DHT22;69146;52.266;7.000;2023-08-30T10:45:42;15.50;99.90
47616;DHT22;69146;52.266;7.000;2023-08-30T10:48:33;15.50;99.90
47616;DHT22;69146;52.266;7.000;2023-08-30T10:51:34;15.40;99.90
47616;DHT22;69146;52.266;7.000;2023-08-30T10:54:19;15.30;99.90
47616;DHT22;69146;52.266;7.000;2023-08-30T10:57:05;15.30;99.90
47616;DHT22;69146;52.266;7.000;2023-08-30T11:00:08;15.30;99.90
47616;DHT22;69146;52.266;7.000;2023-08-30T11:03:14;15.40;99.90
47616;DHT22;69146;52.266;7.000;2023-08-30T11:06:02;15.40;99.90
47616;DHT22;69146;52.266;7.000;2023-08-30T11:08:48;15.40;99.90
47616;DHT22;69146;52.266;7.000;2023-08-30T11:11:34;15.50;99.90
47616;DHT22;69146;52.266;7.000;2023-08-30T11:14:19;15.50;99.90
47616;DHT22;69146;52.266;7.000;2023-08-30T11:17:03;15.40;99.90
47616;DHT22;69146;52.266;7.000;2023-08-30T11:19:49;15.40;99.90
47616;DHT22;69146;52.266;7.000;2023-08-30T11:22:35;15.20;99.90
47616;DHT22;69146;52.266;7.000;2023-08-30T11:25:21;15.20;99.90
47616;DHT22;69146;52.266;7.000;2023-08-30T11:28:06;15.10;99.90
47616;DHT22;69146;52.266;7.000;2023-08-30T11:30:52;15.10;99.90
47616;DHT22;69146;52.266;7.000;2023-08-30T11:33:37;15.00;99.90
47616;DHT22;69146;52.266;7.000;2023-08-30T11:36:22;14.90;99.90
47616;DHT22;69146;52.266;7.000;2023-08-30T11:39:07;14.80;99.90
47616;DHT22;69146;52.266;7.000;2023-08-30T11:41:53;14.80;99.90
47616;DHT22;69146;52.266;7.000;2023-08-30T11:44:37;14.80;99.90
47616;DHT22;69146;52.266;7.000;2023-08-30T11:47:23;14.80;99.90
47616;DHT22;69146;52.266;7.000;2023-08-30T11:50:08;14.90;99.90
47616;DHT22;69146;52.266;7.000;2023-08-30T11:52:54;14.80;99.90
47616;DHT22;69146;52.266;7.000;2023-08-30T11:55:39;14.90;99.90
47616;DHT22;69146;52.266;7.000;2023-08-30T11:58:26;15.00;99.90
47616;DHT22;69146;52.266;7.000;2023-08-30T12:01:11;15.00;99.90
47616;DHT22;69146;52.266;7.000;2023-08-30T12:03:56;15.00;99.90
47616;DHT22;69146;52.266;7.000;2023-08-30T12:06:40;15.00;99.90
47616;DHT22;69146;52.266;7.000;2023-08-30T12:09:29;15.10;99.90
47616;DHT22;69146;52.266;7.000;2023-08-30T12:12:14;15.10;99.90
47616;DHT22;69146;52.266;7.000;2023-08-30T12:15:00;15.30;99.90
47616;DHT22;69146;52.266;7.000;2023-08-30T12:17:45;15.40;99.90
47616;DHT22;69146;52.266;7.000;2023-08-30T12:20:29;15.50;99.90
47616;DHT22;69146;52.266;7.000;2023-08-30T12:23:18;15.80;99.90
47616;DHT22;69146;52.266;7.000;2023-08-30T12:26:04;16.10;99.90
47616;DHT22;69146;52.266;7.000;2023-08-30T12:28:51;16.60;99.90
47616;DHT22;69146;52.266;7.000;2023-08-30T12:31:37;16.90;99.90
47616;DHT22;69146;52.266;7.000;2023-08-30T12:34:21;17.10;99.90
47616;DHT22;69146;52.266;7.000;2023-08-30T12:37:06;17.30;99.90
47616;DHT22;69146;52.266;7.000;2023-08-30T12:39:51;17.30;99.90
47616;DHT22;69146;52.266;7.000;2023-08-30T12:42:35;17.50;99.90
47616;DHT22;69146;52.266;7.000;2023-08-30T12:45:20;17.60;99.90
47616;DHT22;69146;52.266;7.000;2023-08-30T12:48:06;17.70;99.90
47616;DHT22;69146;52.266;7.000;2023-08-30T12:50:50;17.80;99.90
47616;DHT22;69146;52.266;7.000;2023-08-30T12:53:35;17.80;99.90
47616;DHT22;69146;52.266;7.000;2023-08-30T12:56:19;17.70;99.90
47616;DHT22;69146;52.266;7.000;2023-08-30T12:59:04;17.60;99.90
47616;DHT22;69146;52.266;7.000;2023-08-30T13:01:48;17.60;99.90
47616;DHT22;69146;52.266;7.000;2023-08-30T13:04:34;17.50;99.90
47616;DHT22;69146;52.266;7.000;2023-08-30T13:07:21;17.40;99.90
47616;DHT22;69146;52.266;7.000;2023-08-30T13:10:06;17.20;99.90
47616;DHT22;69146;52.266;7.000;2023-08-30T13:12:51;17.10;99.90
47616;DHT22;69146;52.266;7.000;2023-08-30T13:15:35;16.90;99.90
47616;DHT22;69146;52.266;7.000;2023-08-30T13:18:20;16.60;99.90
47616;DHT22;69146;52.266;7.000;2023-08-30T13:21:09;16.20;99.90
47616;DHT22;69146;52.266;7.000;2023-08-30T13:23:53;16.00;99.90
47616;DHT22;69146;52.266;7.000;2023-08-30T13:26:38;15.90;99.90
47616;DHT22;69146;52.266;7.000;2023-08-30T13:29:22;15.90;99.90
47616;DHT22;69146;52.266;7.000;2023-08-30T13:32:07;16.30;99.90
47616;DHT22;69146;52.266;7.000;2023-08-30T13:34:51;17.30;99.90
47616;DHT22;69146;52.266;7.000;2023-08-30T13:37:37;18.40;99.90
47616;DHT22;69146;52.266;7.000;2023-08-30T13:40:22;19.30;99.90
47616;DHT22;69146;52.266;7.000;2023-08-30T13:43:06;19.70;99.90
47616;DHT22;69146;52.266;7.000;2023-08-30T13:45:56;19.90;99.90
47616;DHT22;69146;52.266;7.000;2023-08-30T13:48:41;20.00;99.90
47616;DHT22;69146;52.266;7.000;2023-08-30T13:51:26;19.60;99.90
47616;DHT22;69146;52.266;7.000;2023-08-30T13:54:12;19.30;99.90
47616;DHT22;69146;52.266;7.000;2023-08-30T13:56:57;19.20;99.90
47616;DHT22;69146;52.266;7.000;2023-08-30T13:59:42;19.10;99.90
47616;DHT22;69146;52.266;7.000;2023-08-30T14:02:27;18.90;99.90
47616;DHT22;69146;52.266;7.000;2023-08-30T14:05:15;19.00;99.90
47616;DHT22;69146;52.266;7.000;2023-08-30T14:08:00;19.30;99.90
47616;DHT22;69146;52.266;7.000;2023-08-30T14:10:47;19.20;99.90
47616;DHT22;69146;52.266;7.000;2023-08-30T14:13:32;19.00;99.90
47616;DHT22;69146;52.266;7.000;2023-08-30T14:16:19;19.00;99.90
47616;DHT22;69146;52.266;7.000;2023-08-30T14:19:04;19.00;99.90
47616;DHT22;69146;52.266;7.000;2023-08-30T14:21:50;18.90;99.90
47616;DHT22;69146;52.266;7.000;2023-08-30T14:24:41;19.00;99.90
47616;DHT22;69146;52.266;7.000;2023-08-30T14:27:28;19.00;99.90
47616;DHT22;69146;52.266;7.000;2023-08-30T14:30:14;19.00;99.90
47616;DHT22;69146;52.266;7.000;2023-08-30T14:32:59;18.80;99.90
47616;DHT22;69146;52.266;7.000;2023-08-30T14:35:43;19.20;99.90
47616;DHT22;69146;52.266;7.000;2023-08-30T14:38:33;20.10;99.90
47616;DHT22;69146;52.266;7.000;2023-08-30T14:41:25;20.80;99.90
47616;DHT22;69146;52.266;7.000;2023-08-30T14:44:11;21.60;99.90
47616;DHT22;69146;52.266;7.000;2023-08-30T14:46:56;22.10;99.90
47616;DHT22;69146;52.266;7.000;2023-08-30T14:49:40;22.10;99.30
47616;DHT22;69146;52.266;7.000;2023-08-30T14:52:25;21.40;99.90
47616;DHT22;69146;52.266;7.000;2023-08-30T14:55:09;20.90;99.90
47616;DHT22;69146;52.266;7.000;2023-08-30T14:57:54;20.50;99.90
47616;DHT22;69146;52.266;7.000;2023-08-30T15:00:40;20.70;99.90
47616;DHT22;69146;52.266;7.000;2023-08-30T15:03:24;20.70;99.90
47616;DHT22;69146;52.266;7.000;2023-08-30T15:06:08;21.00;99.90
47616;DHT22;69146;52.266;7.000;2023-08-30T15:08:53;21.60;99.50
47616;DHT22;69146;52.266;7.000;2023-08-30T15:11:39;22.20;99.00
47616;DHT22;69146;52.266;7.000;2023-08-30T15:14:23;22.50;98.70
47616;DHT22;69146;52.266;7.000;2023-08-30T15:17:09;22.00;99.00
47616;DHT22;69146;52.266;7.000;2023-08-30T15:19:54;21.70;99.20
47616;DHT22;69146;52.266;7.000;2023-08-30T15:22:39;21.30;99.90
47616;DHT22;69146;52.266;7.000;2023-08-30T15:25:24;20.90;99.90
47616;DHT22;69146;52.266;7.000;2023-08-30T15:28:12;21.20;99.90
47616;DHT22;69146;52.266;7.000;2023-08-30T15:30:56;21.30;99.00
47616;DHT22;69146;52.266;7.000;2023-08-30T15:33:42;20.90;99.40
47616;DHT22;69146;52.266;7.000;2023-08-30T15:36:27;20.30;99.90
47616;DHT22;69146;52.266;7.000;2023-08-30T15:39:12;20.10;99.90
47616;DHT22;69146;52.266;7.000;2023-08-30T15:41:56;19.80;99.90
47616;DHT22;69146;52.266;7.000;2023-08-30T15:44:42;19.60;99.90
47616;DHT22;69146;52.266;7.000;2023-08-30T15:47:26;19.50;99.90
47616;DHT22;69146;52.266;7.000;2023-08-30T15:50:12;19.70;99.90
47616;DHT22;69146;52.266;7.000;2023-08-30T15:52:56;19.70;99.90
47616;DHT22;69146;52.266;7.000;2023-08-30T15:55:41;19.80;99.90
47616;DHT22;69146;52.266;7.000;2023-08-30T15:58:25;19.80;99.90
47616;DHT22;69146;52.266;7.000;2023-08-30T16:01:09;19.70;99.90
47616;DHT22;69146;52.266;7.000;2023-08-30T16:03:54;19.70;99.90
47616;DHT22;69146;52.266;7.000;2023-08-30T16:06:40;19.70;99.90
47616;DHT22;69146;52.266;7.000;2023-08-30T16:09:26;19.60;99.90
47616;DHT22;69146;52.266;7.000;2023-08-30T16:12:10;19.40;99.90
47616;DHT22;69146;52.266;7.000;2023-08-30T16:14:55;19.30;99.90
47616;DHT22;69146;52.266;7.000;2023-08-30T16:17:39;19.10;99.90
47616;DHT22;69146;52.266;7.000;2023-08-30T16:20:24;19.10;99.90
47616;DHT22;69146;52.266;7.000;2023-08-30T16:23:10;19.10;99.90
47616;DHT22;69146;52.266;7.000;2023-08-30T16:25:56;19.10;99.90
47616;DHT22;69146;52.266;7.000;2023-08-30T16:28:40;19.20;99.90
47616;DHT22;69146;52.266;7.000;2023-08-30T16:31:28;19.20;99.90
47616;DHT22;69146;52.266;7.000;2023-08-30T16:34:12;19.00;99.90
47616;DHT22;69146;52.266;7.000;2023-08-30T16:36:58;18.90;99.90
47616;DHT22;69146;52.266;7.000;2023-08-30T16:39:44;18.80;99.90
47616;DHT22;69146;52.266;7.000;2023-08-30T16:42:29;18.70;99.90
47616;DHT22;69146;52.266;7.000;2023-08-30T16:45:13;18.60;99.90
47616;DHT22;69146;52.266;7.000;2023-08-30T16:47:57;18.50;99.90
47616;DHT22;69146;52.266;7.000;2023-08-30T16:50:42;18.30;99.90
47616;DHT22;69146;52.266;7.000;2023-08-30T16:53:26;17.90;99.90
47616;DHT22;69146;52.266;7.000;2023-08-30T16:56:12;17.70;99.90
47616;DHT22;69146;52.266;7.000;2023-08-30T16:58:57;17.50;99.90
47616;DHT22;69146;52.266;7.000;2023-08-30T17:01:41;17.40;99.90
47616;DHT22;69146;52.266;7.000;2023-08-30T17:04:26;17.30;99.90
47616;DHT22;69146;52.266;7.000;2023-08-30T17:07:10;17.20;99.90
47616;DHT22;69146;52.266;7.000;2023-08-30T17:09:54;17.10;99.90
47616;DHT22;69146;52.266;7.000;2023-08-30T17:12:41;17.00;99.90
47616;DHT22;69146;52.266;7.000;2023-08-30T17:15:26;16.90;99.90
47616;DHT22;69146;52.266;7.000;2023-08-30T17:18:11;16.80;99.90
47616;DHT22;69146;52.266;7.000;2023-08-30T17:20:55;16.70;99.90
47616;DHT22;69146;52.266;7.000;2023-08-30T17:23:39;16.60;99.90